Ahoskie, NC

06:32 AM EDT af September 25, 2016 (GMT -0400)
Vaughantown | | Change Station

Elev 89 ft 36.39 °N, 77.08 °W | Updated 20 seconds ago

Light Rain
laykhter regn
68.0 °f
Feels Like 68.0 °f
N
0.0
vint baytevdik vint from dorem[d]

haynt
High -- | Low -- °f
--% Chance of Precip.
Yesterday
High -- | Low -- °f
Precip. -- in
druk 30.14 in
zeevdikeyt 7.0 mayln
Clouds tsevorfene volkns 1800 ft
tsevorfene volkns 3000 ft
farvolknt 4500 ft
toypunkt 66 °f
faykhtkeyt 95%
Rainfall 0.05 in
Snow Depth Not available.
6:58 AM 6:59 PM
Waning Crescent, 29% visible
METAR KASJ 251025Z AUTO 01003KT 7SM -RA SCT018 SCT030 OVC045 20/19 A3014 RMK AO2 T01970193
druk 30.14 in
zeevdikeyt 7.0 mayln
Clouds tsevorfene volkns 1800 ft
tsevorfene volkns 3000 ft
farvolknt 4500 ft
toypunkt 66 °f
faykhtkeyt 95%
Rainfall 0.05 in
Snow Depth Not available.
6:58 AM 6:59 PM
Waning Crescent, 29% visible
METAR KASJ 251025Z AUTO 01003KT 7SM -RA SCT018 SCT030 OVC045 20/19 A3014 RMK AO2 T01970193

10-Day Weather Forecast

Almanac

Astronomy

Sep. 25, 2016 Rise Set
Actual Time
Civil Twilight
Nautical Twilight
Astronomical Twilight
Moon
Length Of Visible Light
Length of Day
Tomorrow will be .
, % of the Moon is Illuminated

Today's Extremes

State Highs State Lows

Community

WunderPhotos

Upload Photos

1,941,566 photos uploaded!

WunderBlog® & News

Nearby

Air Quality

  Air Quality AQ Index Pollutant
Not available.

Snow Depth

Station Depth Elevation

Earthquake Activity

City Distance Mag. Time & Date
Minimum magnitude displayed is 2.5.

Coastal Water Temperatures

plats temperatur

Stations

Nearby Weather Stations

Station Location Temp vintkelt toypunkt faykhtkeyt vint Precip. Elev dertsaytikt Type
                   

Watches & Warnings

There are currently no watches in effect.